Time;durP1;ratioP1;P1;durP2;ratioP2;P2;SDS_P1;SDS_P2;PMS_P1;PMS_P2;Temp;Humidity;BMP_temperature;BMP_pressure;BME280_temperature;BME280_humidity;BME280_pressure;Samples;Min_cycle;Max_cycle;Signal;HPM_P1;HPM_P2
2023/07/07 00:02:04;;;;;;;8.50;4.93;;;19.30;99.90;;;;;;5071213;28;20216;-72
2023/07/07 00:04:32;;;;;;;21.70;6.20;;;19.30;99.90;;;;;;5072683;28;20189;-70
2023/07/07 00:06:59;;;;;;;12.70;5.83;;;19.20;99.90;;;;;;5072178;28;20666;-68
2023/07/07 00:09:26;;;;;;;15.70;4.87;;;19.50;99.90;;;;;;5072536;28;20228;-71
2023/07/07 00:11:54;;;;;;;11.83;3.90;;;19.80;99.90;;;;;;5071297;28;20554;-70
2023/07/07 00:14:21;;;;;;;12.37;2.60;;;19.80;99.90;;;;;;5071219;28;20325;-70
2023/07/07 00:16:49;;;;;;;13.50;2.90;;;19.80;99.90;;;;;;5072628;28;20187;-71
2023/07/07 00:19:16;;;;;;;6.70;2.77;;;19.70;99.90;;;;;;5072488;28;20182;-71
2023/07/07 00:21:44;;;;;;;10.57;2.00;;;19.70;99.90;;;;;;5072088;28;20239;-69
2023/07/07 00:24:11;;;;;;;7.90;2.00;;;20.00;99.90;;;;;;5072424;28;20641;-68
2023/07/07 00:26:39;;;;;;;6.23;2.00;;;20.20;99.90;;;;;;5072176;28;20211;-69
2023/07/07 00:29:06;;;;;;;8.17;2.27;;;20.20;99.90;;;;;;5072547;28;20172;-71
2023/07/07 00:31:34;;;;;;;6.70;1.43;;;20.30;99.90;;;;;;5072384;28;20211;-72
2023/07/07 00:34:01;;;;;;;5.87;1.33;;;20.40;99.90;;;;;;5075302;28;20168;-71
2023/07/07 00:36:28;;;;;;;2.27;1.07;;;20.50;99.90;;;;;;5075983;28;20229;-71
2023/07/07 00:38:56;;;;;;;3.17;1.20;;;20.60;99.00;;;;;;5075932;28;20172;-70
2023/07/07 00:41:23;;;;;;;3.37;0.80;;;20.90;99.10;;;;;;5075866;28;20677;-69
2023/07/07 00:44:08;;;;;;;2.63;1.00;;;20.80;95.80;;;;;;5075649;28;20224;-68
2023/07/07 00:46:37;;;;;;;4.20;0.80;;;20.90;94.80;;;;;;5075655;28;20176;-68
2023/07/07 00:49:15;;;;;;;0.60;0.60;;;21.00;95.40;;;;;;5075657;28;20175;-69
2023/07/07 00:55:05;;;;;;;3.30;0.80;;;20.80;91.20;;;;;;5074885;28;20603;-70
2023/07/07 00:57:32;;;;;;;2.10;0.67;;;20.90;92.60;;;;;;5075613;28;20187;-68
2023/07/07 01:00:00;;;;;;;0.70;0.63;;;21.40;91.30;;;;;;5075527;28;20699;-70
2023/07/07 01:02:28;;;;;;;1.23;0.90;;;21.40;82.20;;;;;;5075610;28;20187;-68
2023/07/07 01:05:00;;;;;;;1.30;0.40;;;20.90;87.30;;;;;;5075286;28;20224;-68
2023/07/07 01:07:44;;;;;;;1.80;0.40;;;20.70;84.10;;;;;;5075250;28;20259;-69
2023/07/07 01:10:11;;;;;;;2.00;0.50;;;20.80;80.20;;;;;;5075478;28;20537;-70
2023/07/07 01:12:39;;;;;;;0.83;0.40;;;20.90;83.20;;;;;;5075354;28;20267;-69
2023/07/07 01:15:07;;;;;;;0.60;0.50;;;20.90;80.40;;;;;;5074870;28;20180;-69
2023/07/07 01:17:53;;;;;;;0.77;0.40;;;21.00;79.00;;;;;;5075409;28;20175;-68
2023/07/07 01:20:23;;;;;;;1.80;0.40;;;20.70;84.00;;;;;;5075057;28;20179;-70
2023/07/07 01:23:12;;;;;;;0.63;0.40;;;21.10;79.50;;;;;;5075117;28;20585;-70
2023/07/07 01:25:55;;;;;;;0.40;0.40;;;21.10;80.70;;;;;;5075344;28;20180;-70
2023/07/07 01:28:53;;;;;;;1.73;0.40;;;21.80;79.60;;;;;;5075252;28;20535;-70
2023/07/07 01:31:42;;;;;;;0.87;0.60;;;21.80;73.10;;;;;;5075040;28;20171;-70
2023/07/07 01:34:16;;;;;;;0.30;0.30;;;21.30;73.30;;;;;;5075054;28;20164;-70
2023/07/07 01:36:44;;;;;;;0.20;0.20;;;21.40;71.20;;;;;;5075216;28;20176;-71
2023/07/07 01:39:12;;;;;;;0.40;0.30;;;21.60;64.70;;;;;;5074609;28;20188;-72
2023/07/07 01:41:53;;;;;;;0.70;0.20;;;21.40;67.60;;;;;;5073275;28;20580;-70
2023/07/07 01:44:53;;;;;;;0.37;0.37;;;21.70;66.00;;;;;;5074267;28;20172;-69
2023/07/07 01:47:33;;;;;;;0.20;0.20;;;21.70;65.30;;;;;;5074741;28;20172;-70
2023/07/07 01:50:03;;;;;;;0.37;0.33;;;21.60;63.20;;;;;;5074653;28;20228;-70
2023/07/07 01:52:33;;;;;;;0.20;0.20;;;21.60;62.70;;;;;;5074720;28;20535;-69
2023/07/07 01:55:28;;;;;;;0.20;0.20;;;22.00;61.80;;;;;;5072868;28;20709;-70
2023/07/07 01:57:59;;;;;;;0.63;0.30;;;22.00;64.20;;;;;;5060606;28;20195;-70
2023/07/07 02:00:29;;;;;;;0.53;0.40;;;21.40;64.00;;;;;;5074304;28;20204;-69
2023/07/07 02:02:58;;;;;;;0.53;0.40;;;21.90;66.70;;;;;;5074345;28;20198;-68
2023/07/07 02:05:28;;;;;;;1.40;0.40;;;21.90;60.60;;;;;;5074214;28;20164;-69
2023/07/07 02:07:56;;;;;;;0.57;0.40;;;21.90;61.20;;;;;;5072995;28;20207;-68
2023/07/07 02:10:23;;;;;;;1.50;0.40;;;21.90;61.20;;;;;;5074183;28;20176;-69
2023/07/07 02:12:50;;;;;;;0.63;0.40;;;22.10;60.30;;;;;;5074015;28;20221;-71
2023/07/07 02:18:41;;;;;;;0.50;0.40;;;22.00;59.60;;;;;;5073374;28;20263;-72
2023/07/07 02:21:09;;;;;;;0.80;0.30;;;22.40;57.40;;;;;;5073851;28;20265;-69
2023/07/07 02:23:36;;;;;;;1.87;0.33;;;22.30;56.70;;;;;;5073877;28;20220;-70
2023/07/07 02:26:04;;;;;;;0.40;0.40;;;22.20;56.30;;;;;;5073689;28;20176;-69
2023/07/07 02:28:31;;;;;;;0.30;0.30;;;22.30;55.00;;;;;;5073797;28;20168;-70
2023/07/07 02:30:59;;;;;;;0.30;0.30;;;22.50;56.40;;;;;;5073596;28;20626;-71
2023/07/07 02:33:31;;;;;;;0.30;0.30;;;22.80;56.50;;;;;;5073819;28;20175;-71
2023/07/07 02:36:03;;;;;;;1.20;0.30;;;22.80;53.90;;;;;;5072238;28;20356;-70
2023/07/07 02:38:31;;;;;;;0.30;0.30;;;22.60;54.50;;;;;;5073572;28;20553;-72
2023/07/07 02:40:59;;;;;;;0.20;0.20;;;22.20;54.00;;;;;;5073382;28;20573;-72
2023/07/07 02:43:26;;;;;;;0.23;0.23;;;21.70;55.20;;;;;;5073592;28;20638;-71
2023/07/07 02:45:54;;;;;;;0.40;0.33;;;21.70;56.20;;;;;;5073636;28;20180;-70
2023/07/07 02:48:22;;;;;;;0.50;0.47;;;22.20;58.10;;;;;;5073470;28;20176;-69
2023/07/07 02:51:01;;;;;;;0.90;0.70;;;22.30;54.80;;;;;;5073413;28;20183;-68
2023/07/07 02:53:35;;;;;;;1.27;0.23;;;22.80;56.30;;;;;;5073859;28;20180;-68
2023/07/07 02:56:03;;;;;;;0.30;0.30;;;22.90;52.80;;;;;;5072872;28;20183;-69
2023/07/07 02:58:31;;;;;;;1.43;0.40;;;23.30;53.60;;;;;;5073417;28;20172;-69
2023/07/07 03:01:13;;;;;;;0.93;0.40;;;22.80;51.40;;;;;;5073054;28;20203;-69
2023/07/07 03:03:43;;;;;;;0.77;0.30;;;22.20;52.30;;;;;;5073773;28;20172;-68
2023/07/07 03:06:16;;;;;;;0.23;0.23;;;21.90;52.70;;;;;;5073099;28;20191;-69
2023/07/07 03:08:45;;;;;;;1.50;0.30;;;21.70;52.30;;;;;;5073308;28;20183;-71
2023/07/07 03:11:16;;;;;;;6.80;0.40;;;22.30;54.00;;;;;;5073220;28;20175;-69
2023/07/07 03:13:46;;;;;;;0.50;0.23;;;22.40;52.30;;;;;;5073181;28;20180;-72
2023/07/07 03:16:21;;;;;;;0.50;0.30;;;22.50;52.10;;;;;;5072921;28;20253;-69
2023/07/07 03:18:54;;;;;;;0.73;0.30;;;22.30;50.80;;;;;;5073027;28;20178;-72
2023/07/07 03:21:23;;;;;;;0.30;0.30;;;22.30;50.60;;;;;;5072939;28;20346;-69
2023/07/07 03:23:55;;;;;;;0.40;0.40;;;22.70;51.80;;;;;;5073284;28;20172;-68
2023/07/07 03:26:24;;;;;;;0.37;0.30;;;22.80;50.30;;;;;;5072779;28;20180;-70
2023/07/07 03:28:52;;;;;;;0.20;0.20;;;23.00;47.10;;;;;;5073022;28;20202;-69
2023/07/07 03:31:25;;;;;;;0.33;0.33;;;22.20;46.70;;;;;;5073014;28;20668;-69
2023/07/07 03:33:55;;;;;;;3.50;0.30;;;21.60;48.20;;;;;;5073086;28;20614;-69
2023/07/07 03:36:25;;;;;;;0.30;0.30;;;21.20;48.50;;;;;;5073073;28;20286;-69
2023/07/07 03:38:55;;;;;;;0.33;0.33;;;21.40;53.30;;;;;;5071635;28;20229;-69
2023/07/07 03:41:24;;;;;;;2.83;0.63;;;21.70;51.90;;;;;;5072612;28;20211;-69
2023/07/07 03:43:53;;;;;;;0.30;0.30;;;21.90;48.90;;;;;;5072585;28;20182;-69
2023/07/07 03:46:23;;;;;;;0.23;0.23;;;21.90;49.90;;;;;;5072670;28;20169;-72
2023/07/07 03:48:53;;;;;;;0.20;0.20;;;22.10;48.00;;;;;;5072884;28;20179;-71
2023/07/07 03:51:21;;;;;;;0.17;0.17;;;22.20;45.90;;;;;;5072695;28;20184;-68
2023/07/07 03:53:50;;;;;;;0.20;0.20;;;21.90;45.40;;;;;;5072576;28;20539;-69
2023/07/07 03:56:18;;;;;;;0.20;0.20;;;21.80;44.30;;;;;;5073109;28;20172;-69
2023/07/07 03:58:45;;;;;;;0.60;0.30;;;21.80;45.10;;;;;;5072495;28;20180;-68
2023/07/07 04:01:16;;;;;;;0.20;0.20;;;21.90;45.60;;;;;;5072577;28;20298;-68
2023/07/07 04:03:48;;;;;;;1.27;0.30;;;21.80;45.30;;;;;;5072977;28;20629;-69
2023/07/07 04:06:17;;;;;;;0.30;0.30;;;22.00;44.20;;;;;;5072752;28;20183;-69
2023/07/07 04:08:45;;;;;;;0.20;0.20;;;22.00;45.70;;;;;;5076359;28;20536;-68
2023/07/07 04:11:15;;;;;;;0.23;0.23;;;22.00;44.60;;;;;;5077040;28;20676;-67
2023/07/07 04:13:44;;;;;;;0.30;0.30;;;22.10;46.30;;;;;;5075052;28;20187;-69
2023/07/07 04:16:23;;;;;;;0.97;0.30;;;22.30;43.40;;;;;;5076171;28;20641;-69
2023/07/07 04:18:53;;;;;;;0.23;0.20;;;21.70;41.60;;;;;;5076150;28;20208;-68
2023/07/07 04:21:23;;;;;;;0.83;0.30;;;21.60;41.10;;;;;;5076006;28;20300;-71
2023/07/07 04:23:54;;;;;;;0.73;0.30;;;21.70;41.70;;;;;;5076329;28;20175;-69
2023/07/07 04:26:23;;;;;;;0.20;0.20;;;21.10;40.00;;;;;;5076272;28;20192;-71
2023/07/07 04:28:52;;;;;;;0.20;0.20;;;20.80;44.30;;;;;;5076144;28;20186;-69
2023/07/07 04:31:21;;;;;;;1.40;0.40;;;20.50;43.50;;;;;;5076056;28;20188;-71
2023/07/07 04:33:48;;;;;;;0.30;0.30;;;20.10;46.00;;;;;;5075897;28;20183;-70
2023/07/07 04:36:16;;;;;;;0.30;0.30;;;19.80;46.20;;;;;;5076180;28;20646;-69
2023/07/07 04:38:44;;;;;;;0.30;0.30;;;19.80;46.60;;;;;;5075633;28;20215;-68
2023/07/07 04:41:18;;;;;;;0.93;0.30;;;19.40;48.10;;;;;;5075613;28;20657;-68
2023/07/07 04:43:49;;;;;;;0.30;0.30;;;19.50;48.70;;;;;;5075756;28;20176;-68
2023/07/07 04:46:20;;;;;;;0.20;0.20;;;19.20;49.80;;;;;;5075736;28;20215;-69
2023/07/07 04:48:48;;;;;;;0.97;0.40;;;19.50;50.60;;;;;;5075820;28;20180;-68
2023/07/07 04:51:15;;;;;;;2.33;0.30;;;19.40;49.40;;;;;;5075784;28;20176;-71
2023/07/07 04:53:43;;;;;;;0.20;0.20;;;19.80;50.00;;;;;;5075631;28;20169;-68
2023/07/07 04:56:14;;;;;;;0.30;0.30;;;20.00;50.50;;;;;;5075623;28;20183;-67
2023/07/07 04:58:42;;;;;;;0.20;0.20;;;19.90;49.40;;;;;;5075603;28;20179;-68
2023/07/07 05:01:11;;;;;;;0.40;0.30;;;20.20;50.00;;;;;;5075480;28;20257;-70
2023/07/07 05:03:40;;;;;;;0.93;0.20;;;20.40;48.60;;;;;;5075567;28;20183;-68
2023/07/07 05:06:08;;;;;;;2.20;0.37;;;20.60;49.50;;;;;;5075202;28;20552;-69
2023/07/07 05:08:38;;;;;;;0.67;0.30;;;20.60;48.10;;;;;;5075345;28;20164;-68
2023/07/07 05:11:06;;;;;;;0.20;0.20;;;20.70;48.40;;;;;;5075471;28;20171;-68
2023/07/07 05:13:34;;;;;;;0.30;0.30;;;20.60;48.80;;;;;;5075273;28;20187;-71
2023/07/07 05:16:06;;;;;;;0.20;0.20;;;20.70;48.90;;;;;;5075229;28;20225;-68
2023/07/07 05:18:34;;;;;;;4.40;0.33;;;20.70;48.20;;;;;;5074714;28;20229;-68
2023/07/07 05:21:03;;;;;;;0.37;0.37;;;20.80;47.60;;;;;;5074857;28;20203;-68
2023/07/07 05:23:31;;;;;;;0.30;0.30;;;20.30;46.90;;;;;;5075012;28;20673;-71
2023/07/07 05:26:00;;;;;;;0.43;0.30;;;19.80;48.00;;;;;;5075047;28;20172;-68
2023/07/07 05:28:27;;;;;;;0.20;0.20;;;19.70;49.70;;;;;;5075116;28;20188;-70
2023/07/07 05:30:54;;;;;;;0.83;0.40;;;19.50;51.50;;;;;;5075007;28;20597;-68
2023/07/07 05:33:22;;;;;;;0.23;0.23;;;19.50;53.50;;;;;;5075331;28;20581;-68
2023/07/07 05:35:55;;;;;;;2.20;0.40;;;19.30;53.90;;;;;;5074688;28;20168;-68
2023/07/07 05:38:24;;;;;;;0.30;0.30;;;19.20;55.40;;;;;;5074810;28;20177;-68
2023/07/07 05:40:52;;;;;;;0.30;0.30;;;19.00;54.70;;;;;;5073212;28;20211;-68
2023/07/07 05:43:22;;;;;;;0.30;0.30;;;18.80;56.50;;;;;;5074812;28;20245;-69
2023/07/07 05:45:59;;;;;;;0.80;0.40;;;18.60;57.20;;;;;;5073062;28;20184;-69
2023/07/07 05:48:27;;;;;;;0.57;0.43;;;18.50;57.80;;;;;;5075067;28;20175;-68
2023/07/07 05:50:58;;;;;;;0.50;0.50;;;18.30;57.70;;;;;;5074528;28;20231;-71
2023/07/07 05:53:26;;;;;;;0.47;0.47;;;18.20;57.90;;;;;;5074703;28;20168;-69
2023/07/07 05:55:58;;;;;;;1.93;0.40;;;18.10;59.80;;;;;;5074307;28;20168;-68
2023/07/07 05:58:26;;;;;;;0.40;0.40;;;18.00;63.40;;;;;;5074349;28;20179;-70
2023/07/07 06:00:53;;;;;;;4.93;0.40;;;17.90;65.60;;;;;;5074266;28;20205;-68
2023/07/07 06:03:20;;;;;;;0.63;0.40;;;17.80;66.90;;;;;;5074306;28;20230;-68
2023/07/07 06:05:48;;;;;;;1.20;0.40;;;17.80;66.00;;;;;;5074303;28;20225;-70
2023/07/07 06:08:15;;;;;;;0.60;0.33;;;17.70;67.30;;;;;;5074356;28;20180;-69
2023/07/07 06:10:46;;;;;;;0.30;0.30;;;17.60;71.10;;;;;;5074054;28;20168;-68
2023/07/07 06:13:17;;;;;;;0.40;0.40;;;17.50;72.10;;;;;;5075329;28;20625;-69
2023/07/07 06:15:45;;;;;;;0.30;0.30;;;17.50;74.20;;;;;;5073667;28;20180;-70
2023/07/07 06:18:12;;;;;;;0.40;0.40;;;17.40;78.30;;;;;;5073937;28;20302;-68
2023/07/07 06:20:39;;;;;;;0.70;0.40;;;17.30;80.20;;;;;;5073767;28;20203;-70
2023/07/07 06:23:08;;;;;;;0.30;0.30;;;17.30;82.10;;;;;;5073669;28;20235;-70
2023/07/07 06:25:35;;;;;;;0.33;0.33;;;17.20;83.00;;;;;;5073820;28;20172;-68
2023/07/07 06:28:03;;;;;;;0.40;0.40;;;17.10;83.60;;;;;;5073686;28;20183;-68
2023/07/07 06:30:30;;;;;;;0.57;0.37;;;17.10;85.90;;;;;;5072903;28;20172;-68
2023/07/07 06:32:58;;;;;;;0.77;0.40;;;17.00;88.80;;;;;;5073723;28;20200;-68
2023/07/07 06:35:27;;;;;;;0.40;0.40;;;16.90;90.90;;;;;;5073647;28;20271;-71
2023/07/07 06:37:54;;;;;;;1.43;0.40;;;16.80;90.80;;;;;;5073529;28;20175;-69
2023/07/07 06:40:21;;;;;;;0.40;0.40;;;16.70;90.80;;;;;;5073544;28;20571;-69
2023/07/07 06:42:55;;;;;;;0.40;0.40;;;16.60;91.70;;;;;;5073802;28;20236;-68
2023/07/07 06:45:22;;;;;;;0.30;0.30;;;16.50;91.80;;;;;;5073511;28;20294;-69
2023/07/07 06:47:50;;;;;;;1.23;0.40;;;16.40;92.20;;;;;;5073554;28;20176;-68
2023/07/07 06:50:25;;;;;;;0.40;0.40;;;16.40;92.90;;;;;;5072198;28;20190;-68
2023/07/07 06:52:52;;;;;;;0.70;0.50;;;16.30;94.10;;;;;;5073332;28;20258;-67
2023/07/07 06:55:20;;;;;;;0.40;0.40;;;16.20;94.50;;;;;;5073240;28;20179;-70
2023/07/07 06:57:48;;;;;;;3.13;0.40;;;16.10;95.90;;;;;;5073288;28;20179;-68
2023/07/07 07:00:15;;;;;;;2.50;0.40;;;16.00;97.10;;;;;;5073286;28;20190;-67
2023/07/07 07:02:44;;;;;;;0.50;0.40;;;15.90;97.60;;;;;;5073264;28;20262;-68
2023/07/07 07:05:11;;;;;;;0.40;0.40;;;15.80;99.00;;;;;;5073038;28;20178;-70
2023/07/07 07:07:39;;;;;;;0.43;0.40;;;15.70;99.60;;;;;;5073239;28;20184;-69
2023/07/07 07:10:07;;;;;;;0.50;0.50;;;15.70;99.90;;;;;;5073261;28;20176;-68
2023/07/07 07:12:35;;;;;;;1.10;0.60;;;15.60;99.90;;;;;;5073074;28;20262;-68
2023/07/07 07:15:02;;;;;;;0.53;0.53;;;15.50;99.90;;;;;;5073283;28;20174;-68
2023/07/07 07:17:30;;;;;;;0.77;0.57;;;15.40;99.90;;;;;;5071308;28;20544;-68
2023/07/07 07:19:57;;;;;;;0.60;0.60;;;15.40;99.90;;;;;;5073024;28;20179;-70
2023/07/07 07:22:25;;;;;;;0.50;0.50;;;15.30;99.90;;;;;;5072593;28;20235;-69
2023/07/07 07:24:52;;;;;;;0.70;0.67;;;15.20;99.90;;;;;;5072877;28;20178;-69
2023/07/07 07:27:19;;;;;;;1.37;0.73;;;15.20;99.90;;;;;;5073162;28;20183;-68
2023/07/07 07:29:47;;;;;;;0.80;0.73;;;15.00;99.90;;;;;;5073028;28;20176;-68
2023/07/07 07:32:14;;;;;;;1.03;0.93;;;14.90;99.90;;;;;;5072850;28;20179;-69
2023/07/07 07:34:41;;;;;;;1.80;0.80;;;14.90;99.90;;;;;;5072907;28;20165;-70
2023/07/07 07:37:09;;;;;;;1.00;0.77;;;14.70;99.90;;;;;;5072878;28;20183;-69
2023/07/07 07:39:37;;;;;;;1.97;1.30;;;14.70;99.90;;;;;;5073399;28;20176;-70
2023/07/07 07:42:05;;;;;;;1.20;1.10;;;14.50;99.90;;;;;;5074823;28;20694;-69
2023/07/07 07:44:32;;;;;;;3.37;1.87;;;14.30;99.90;;;;;;5077011;28;20186;-70
2023/07/07 07:47:00;;;;;;;2.50;1.60;;;14.20;99.90;;;;;;5075628;28;20187;-69
2023/07/07 07:49:29;;;;;;;2.30;1.43;;;14.20;99.90;;;;;;5077002;28;20233;-69
2023/07/07 07:51:57;;;;;;;17.63;8.80;;;14.10;99.90;;;;;;5076930;28;20187;-71
2023/07/07 07:54:25;;;;;;;10.47;3.60;;;14.00;99.90;;;;;;5076706;28;20214;-71
2023/07/07 07:56:52;;;;;;;7.80;2.83;;;14.00;99.90;;;;;;5076851;28;20182;-68
2023/07/07 07:59:20;;;;;;;7.73;2.20;;;13.80;99.90;;;;;;5076653;28;20228;-70
2023/07/07 08:01:48;;;;;;;3.70;2.10;;;13.60;99.90;;;;;;5076586;28;20216;-70
2023/07/07 08:04:15;;;;;;;2.30;1.70;;;13.60;99.90;;;;;;5076620;28;20232;-68
2023/07/07 08:06:43;;;;;;;2.10;1.37;;;13.50;99.90;;;;;;5077366;28;20203;-70
2023/07/07 08:09:11;;;;;;;4.57;1.30;;;13.50;99.90;;;;;;5076623;28;20190;-69
2023/07/07 08:11:44;;;;;;;3.80;1.00;;;13.60;99.90;;;;;;5076588;28;20264;-70
2023/07/07 08:14:17;;;;;;;1.50;1.13;;;13.70;99.90;;;;;;5076364;28;20187;-71
2023/07/07 08:16:46;;;;;;;1.57;1.47;;;13.60;99.90;;;;;;5076309;28;20179;-71
2023/07/07 08:19:14;;;;;;;4.33;1.97;;;13.50;99.90;;;;;;5076278;28;20224;-68
2023/07/07 08:21:42;;;;;;;2.13;1.30;;;13.40;99.90;;;;;;5076154;28;20245;-69
2023/07/07 08:24:09;;;;;;;2.67;1.40;;;13.40;99.90;;;;;;5076365;28;20658;-70
2023/07/07 08:26:36;;;;;;;1.33;1.10;;;13.20;99.90;;;;;;5076333;28;20175;-69
2023/07/07 08:29:05;;;;;;;2.43;1.30;;;13.10;99.90;;;;;;5076119;28;20182;-68
2023/07/07 08:31:32;;;;;;;1.40;1.17;;;12.90;99.90;;;;;;5076202;28;20198;-70
2023/07/07 08:34:00;;;;;;;3.63;1.33;;;12.70;99.90;;;;;;5075912;28;20580;-68
2023/07/07 08:36:28;;;;;;;1.50;1.03;;;12.50;99.90;;;;;;5076064;28;20179;-68
2023/07/07 08:39:00;;;;;;;1.57;1.47;;;12.40;99.90;;;;;;5075720;28;20214;-70
2023/07/07 08:41:27;;;;;;;2.53;1.70;;;12.20;99.90;;;;;;5075930;28;20215;-69
2023/07/07 08:43:55;;;;;;;3.57;1.60;;;12.00;99.90;;;;;;5075722;28;20522;-70
2023/07/07 08:46:53;;;;;;;3.13;2.00;;;12.00;99.90;;;;;;5076205;28;20191;-70
2023/07/07 08:49:39;;;;;;;2.27;1.60;;;11.80;99.90;;;;;;5075624;28;20626;-69
2023/07/07 08:52:40;;;;;;;1.87;1.60;;;11.70;99.90;;;;;;5075910;28;20214;-69
2023/07/07 08:55:31;;;;;;;2.10;1.90;;;11.50;99.90;;;;;;5075227;28;20173;-67
2023/07/07 08:58:21;;;;;;;4.87;2.00;;;11.50;99.90;;;;;;5075499;28;20177;-68
2023/07/07 09:01:15;;;;;;;7.00;2.30;;;11.50;99.90;;;;;;5075638;28;20208;-69
2023/07/07 09:04:05;;;;;;;3.03;2.73;;;11.40;99.90;;;;;;5075493;28;20193;-68
2023/07/07 09:07:02;;;;;;;3.30;2.60;;;11.30;99.90;;;;;;5075779;28;20179;-67
2023/07/07 09:09:58;;;;;;;4.03;2.67;;;11.20;99.90;;;;;;5075377;28;20566;-69
2023/07/07 09:12:44;;;;;;;8.30;2.80;;;11.10;99.90;;;;;;5057936;28;20235;-68
2023/07/07 09:15:25;;;;;;;4.23;3.07;;;10.90;99.90;;;;;;5075326;28;20180;-69
2023/07/07 09:18:01;;;;;;;7.23;3.23;;;10.80;99.90;;;;;;5075366;28;20173;-68
2023/07/07 09:20:33;;;;;;;4.53;3.40;;;10.70;99.90;;;;;;5075357;28;20662;-70
2023/07/07 09:23:19;;;;;;;7.20;3.40;;;10.60;99.90;;;;;;5075089;28;20266;-69
2023/07/07 09:26:08;;;;;;;6.23;3.53;;;10.50;99.90;;;;;;5075148;28;20262;-71
2023/07/07 09:28:45;;;;;;;6.60;4.07;;;10.50;99.90;;;;;;5075353;28;20181;-68
2023/07/07 09:31:24;;;;;;;4.73;3.43;;;10.40;99.90;;;;;;5075035;28;20178;-71
2023/07/07 09:33:52;;;;;;;6.23;3.80;;;10.30;99.90;;;;;;5075092;28;20240;-69
2023/07/07 09:36:52;;;;;;;5.97;3.70;;;10.20;99.90;;;;;;5074831;28;20189;-68
2023/07/07 09:39:45;;;;;;;5.33;3.73;;;10.10;99.90;;;;;;5033772;28;20214;-69
2023/07/07 09:42:39;;;;;;;6.17;3.80;;;10.10;99.90;;;;;;5028264;28;20221;-71
2023/07/07 09:45:37;;;;;;;4.83;3.53;;;10.00;99.90;;;;;;5074836;28;20582;-69
2023/07/07 09:48:10;;;;;;;5.63;3.40;;;9.90;99.90;;;;;;5074966;28;20680;-69
2023/07/07 09:51:02;;;;;;;4.33;3.30;;;9.80;99.90;;;;;;5075321;28;20573;-67
2023/07/07 09:53:40;;;;;;;3.50;2.87;;;9.80;99.90;;;;;;5073148;28;20268;-68
2023/07/07 09:56:29;;;;;;;5.13;2.97;;;9.70;99.90;;;;;;5074915;28;20203;-69
2023/07/07 09:59:21;;;;;;;4.17;2.47;;;9.70;99.90;;;;;;5074322;28;20273;-68
2023/07/07 10:01:54;;;;;;;5.33;3.10;;;9.60;99.90;;;;;;5074280;28;20217;-68
2023/07/07 10:04:24;;;;;;;3.83;3.13;;;9.60;99.90;;;;;;5074101;28;20174;-68
2023/07/07 10:06:58;;;;;;;7.40;3.23;;;9.50;99.90;;;;;;5074263;28;20211;-70
2023/07/07 10:09:28;;;;;;;6.00;3.93;;;9.50;99.90;;;;;;5074448;28;20532;-68
2023/07/07 10:11:56;;;;;;;7.10;3.73;;;9.50;99.90;;;;;;5074309;28;20185;-69
2023/07/07 10:14:28;;;;;;;8.07;5.70;;;9.50;99.90;;;;;;5074104;28;20184;-69
2023/07/07 10:17:10;;;;;;;11.07;7.43;;;9.50;99.90;;;;;;5074304;28;20208;-69
2023/07/07 10:20:13;;;;;;;12.93;7.00;;;9.40;99.90;;;;;;5074401;28;20232;-67
2023/07/07 10:22:40;;;;;;;10.17;7.13;;;9.40;99.90;;;;;;4992328;28;20246;-67
2023/07/07 10:25:13;;;;;;;10.43;6.90;;;9.30;99.90;;;;;;5058384;28;20218;-70
2023/07/07 10:27:47;;;;;;;8.17;6.50;;;9.30;99.90;;;;;;5073914;28;20181;-67
2023/07/07 10:30:15;;;;;;;8.93;6.67;;;9.30;99.90;;;;;;5073873;28;20271;-68
2023/07/07 10:32:42;;;;;;;9.37;6.97;;;9.30;99.90;;;;;;5073886;28;20212;-68
2023/07/07 10:35:16;;;;;;;8.53;6.27;;;9.20;99.90;;;;;;5073857;28;20541;-68
2023/07/07 10:37:44;;;;;;;8.67;6.43;;;9.10;99.90;;;;;;5073617;28;20183;-68
2023/07/07 10:40:25;;;;;;;11.20;7.43;;;9.10;99.90;;;;;;5073614;28;20185;-68
2023/07/07 10:42:55;;;;;;;10.87;7.60;;;9.00;99.90;;;;;;5073957;28;20654;-68
2023/07/07 10:45:23;;;;;;;11.17;7.10;;;9.00;99.90;;;;;;5073309;28;20181;-69
2023/07/07 10:47:50;;;;;;;10.47;6.83;;;8.90;99.90;;;;;;5073663;28;20669;-69
2023/07/07 10:50:21;;;;;;;11.33;5.80;;;8.80;99.90;;;;;;5073432;28;20183;-69
2023/07/07 10:52:57;;;;;;;9.03;6.10;;;8.80;99.90;;;;;;5073652;28;20182;-68
2023/07/07 10:55:28;;;;;;;7.73;6.13;;;8.70;99.90;;;;;;5073776;28;20191;-69
2023/07/07 10:58:04;;;;;;;9.80;6.77;;;8.70;99.90;;;;;;5073714;28;20176;-69
2023/07/07 11:00:49;;;;;;;9.43;6.43;;;8.60;99.90;;;;;;5073260;28;20172;-69
2023/07/07 11:03:22;;;;;;;8.90;6.17;;;8.60;99.90;;;;;;5073314;28;20534;-69
2023/07/07 11:05:59;;;;;;;10.37;6.13;;;8.50;99.90;;;;;;5073080;28;20692;-69
2023/07/07 11:08:40;;;;;;;9.07;6.53;;;8.50;99.90;;;;;;5072916;28;20176;-69
2023/07/07 11:11:13;;;;;;;8.20;5.83;;;8.40;99.90;;;;;;5073332;28;20192;-68
2023/07/07 11:14:03;;;;;;;8.07;6.00;;;8.30;99.90;;;;;;5073080;28;20178;-69
2023/07/07 11:17:01;;;;;;;10.40;6.70;;;8.30;99.90;;;;;;5072853;28;20644;-71
2023/07/07 11:19:34;;;;;;;12.73;6.40;;;8.20;99.90;;;;;;5073021;28;20251;-68
2023/07/07 11:22:23;;;;;;;8.87;6.27;;;8.20;99.90;;;;;;5073245;28;20231;-70
2023/07/07 11:25:06;;;;;;;11.43;6.63;;;8.20;99.90;;;;;;5072976;28;20177;-71
2023/07/07 11:27:55;;;;;;;8.83;6.30;;;8.10;99.90;;;;;;5073775;28;20183;-69
2023/07/07 11:30:29;;;;;;;10.30;6.30;;;8.00;99.90;;;;;;5071647;28;20541;-68
2023/07/07 11:33:24;;;;;;;11.60;7.00;;;8.00;99.90;;;;;;5073637;28;20180;-68
2023/07/07 11:36:30;;;;;;;12.93;8.77;;;7.90;99.90;;;;;;5072719;28;20176;-71
2023/07/07 11:39:00;;;;;;;13.67;9.70;;;7.90;99.90;;;;;;5072743;28;20189;-69
2023/07/07 11:41:52;;;;;;;9.47;7.60;;;8.00;99.90;;;;;;5071475;28;20239;-69
2023/07/07 11:44:29;;;;;;;13.87;7.23;;;8.00;99.90;;;;;;5072804;28;20358;-69
2023/07/07 11:47:35;;;;;;;11.00;6.77;;;7.90;99.90;;;;;;5072854;28;20172;-69
2023/07/07 11:50:20;;;;;;;10.07;6.90;;;7.90;99.90;;;;;;5073132;28;20220;-69
2023/07/07 11:53:05;;;;;;;9.63;7.37;;;7.90;99.90;;;;;;5073119;28;20200;-69
2023/07/07 11:55:55;;;;;;;9.20;5.87;;;7.80;99.90;;;;;;5073110;28;20173;-70
2023/07/07 11:58:54;;;;;;;9.07;5.80;;;7.80;99.90;;;;;;5072833;28;20172;-69
2023/07/07 12:01:31;;;;;;;9.83;6.17;;;7.80;99.90;;;;;;5072707;28;20699;-68
2023/07/07 12:04:25;;;;;;;7.80;5.87;;;7.80;99.90;;;;;;5073007;28;20546;-69
2023/07/07 12:07:16;;;;;;;6.87;5.57;;;7.70;99.90;;;;;;5072951;28;20632;-69
2023/07/07 12:10:07;;;;;;;7.87;5.63;;;7.70;99.90;;;;;;5072712;28;20579;-71
2023/07/07 12:12:39;;;;;;;9.23;6.13;;;7.70;99.90;;;;;;5073409;28;20249;-69
2023/07/07 12:15:24;;;;;;;13.40;6.20;;;7.60;99.90;;;;;;5072466;28;20185;-68
2023/07/07 12:17:56;;;;;;;8.93;5.93;;;7.60;99.90;;;;;;5072512;28;20242;-68
2023/07/07 12:20:30;;;;;;;9.03;5.03;;;7.60;99.90;;;;;;5072708;28;20548;-70
2023/07/07 12:23:00;;;;;;;5.60;4.37;;;7.60;99.90;;;;;;5072526;28;20219;-69
2023/07/07 12:25:29;;;;;;;11.27;5.13;;;7.60;99.90;;;;;;5072429;28;20173;-68
2023/07/07 12:27:58;;;;;;;5.80;4.57;;;7.70;99.90;;;;;;5072727;28;20180;-68
2023/07/07 12:30:44;;;;;;;9.03;5.37;;;7.60;99.90;;;;;;5075994;28;20176;-69
2023/07/07 12:33:13;;;;;;;6.97;5.07;;;7.60;99.90;;;;;;5076469;28;20249;-72
2023/07/07 12:35:56;;;;;;;9.07;5.00;;;7.50;99.90;;;;;;5075898;28;20168;-69
2023/07/07 12:38:31;;;;;;;10.43;6.50;;;7.50;99.90;;;;;;5075948;28;20183;-70
2023/07/07 12:41:14;;;;;;;12.27;6.93;;;7.50;99.90;;;;;;5075865;28;20199;-71
2023/07/07 12:43:46;;;;;;;8.50;6.67;;;7.50;99.90;;;;;;5075922;28;20183;-70
2023/07/07 12:46:31;;;;;;;6.83;5.57;;;7.50;99.90;;;;;;5076622;28;20168;-71
2023/07/07 12:49:04;;;;;;;11.13;6.97;;;7.60;99.90;;;;;;5075929;28;20533;-69
2023/07/07 12:51:36;;;;;;;8.23;6.53;;;7.50;99.90;;;;;;5075895;28;20175;-70
2023/07/07 12:54:03;;;;;;;8.93;6.87;;;7.50;99.90;;;;;;5075890;28;20184;-69
2023/07/07 12:56:32;;;;;;;8.40;6.33;;;7.40;99.90;;;;;;5075903;28;20648;-69
2023/07/07 12:59:01;;;;;;;9.57;6.53;;;7.30;99.90;;;;;;5075784;28;20201;-70
2023/07/07 13:01:40;;;;;;;8.40;6.30;;;7.30;99.90;;;;;;5075620;28;20209;-70
2023/07/07 13:04:08;;;;;;;8.83;6.30;;;7.20;99.90;;;;;;5075630;28;20635;-72
2023/07/07 13:06:37;;;;;;;6.10;4.93;;;7.20;99.90;;;;;;5075924;28;20177;-69
2023/07/07 13:09:13;;;;;;;5.07;4.40;;;7.20;99.90;;;;;;5075488;28;20184;-69
2023/07/07 13:11:57;;;;;;;6.43;4.70;;;7.10;99.90;;;;;;5075401;28;20213;-69
2023/07/07 13:14:42;;;;;;;8.00;4.77;;;7.20;99.90;;;;;;5075730;28;20173;-70
2023/07/07 13:17:26;;;;;;;5.20;4.10;;;7.20;99.90;;;;;;5075354;28;20176;-68
2023/07/07 13:20:04;;;;;;;6.63;4.27;;;7.20;99.90;;;;;;5075098;28;20290;-69
2023/07/07 13:22:37;;;;;;;5.23;3.73;;;7.30;99.90;;;;;;5073751;28;20261;-68
2023/07/07 13:25:07;;;;;;;5.23;3.27;;;7.30;99.90;;;;;;5075672;28;20167;-68
2023/07/07 13:27:35;;;;;;;4.57;3.67;;;7.30;99.90;;;;;;5075384;28;20205;-68